Terminal Aerodrome Forecast
Issued by NWS

Home | Current Version | Previous Version | Text Only | Print | Product List | Glossary On
Versions: 1 2 3 4 5 6 7 8 9 10 11 12 13 14 15 16 17 18 19
000
FTUS41 KPHI 221129
TAFMIV
TAF
KMIV 221129Z 2212/2312 34006KT P6SM SCT120 BKN250
     FM221400 34010G18KT P6SM SCT050 SCT120
      TEMPO 2219/2223 BKN050
     FM222300 34006KT P6SM SCT050=

USA.gov is the U.S. government's official web portal to all federal, state and local government web resources and services.